sensor_id;sensor_type;location;lat;lon;timestamp;pressure;altitude;pressure_sealevel;temperature;humidity
60646;BME280;46462;32.608;-117.032;2022-11-20T00:01:26;99559.82;;;24.90;29.73
60646;BME280;46462;32.608;-117.032;2022-11-20T00:03:56;99557.06;;;24.87;29.77
60646;BME280;46462;32.608;-117.032;2022-11-20T00:06:25;99556.89;;;24.77;29.93
60646;BME280;46462;32.608;-117.032;2022-11-20T00:08:56;99559.32;;;24.73;30.04
60646;BME280;46462;32.608;-117.032;2022-11-20T00:11:26;99561.77;;;24.61;30.26
60646;BME280;46462;32.608;-117.032;2022-11-20T00:13:57;99562.82;;;24.68;30.08
60646;BME280;46462;32.608;-117.032;2022-11-20T00:16:27;99566.74;;;24.70;30.09
60646;BME280;46462;32.608;-117.032;2022-11-20T00:18:55;99571.91;;;24.74;30.00
60646;BME280;46462;32.608;-117.032;2022-11-20T00:21:27;99575.94;;;24.71;30.12
60646;BME280;46462;32.608;-117.032;2022-11-20T00:23:57;99577.79;;;24.70;30.18
60646;BME280;46462;32.608;-117.032;2022-11-20T00:26:27;99580.72;;;24.69;30.26
60646;BME280;46462;32.608;-117.032;2022-11-20T00:28:58;99578.90;;;24.77;30.03
60646;BME280;46462;32.608;-117.032;2022-11-20T00:31:27;99580.84;;;24.81;29.98
60646;BME280;46462;32.608;-117.032;2022-11-20T00:33:57;99583.22;;;24.74;30.13
60646;BME280;46462;32.608;-117.032;2022-11-20T00:36:31;99586.00;;;24.73;30.13
60646;BME280;46462;32.608;-117.032;2022-11-20T00:38:59;99587.33;;;24.70;30.11
60646;BME280;46462;32.608;-117.032;2022-11-20T00:41:29;99589.45;;;24.79;29.98
60646;BME280;46462;32.608;-117.032;2022-11-20T00:43:58;99592.00;;;24.79;29.95
60646;BME280;46462;32.608;-117.032;2022-11-20T00:46:28;99596.12;;;24.94;29.73
60646;BME280;46462;32.608;-117.032;2022-11-20T00:48:58;99598.30;;;24.84;29.87
60646;BME280;46462;32.608;-117.032;2022-11-20T00:51:29;99601.38;;;24.87;29.93
60646;BME280;46462;32.608;-117.032;2022-11-20T00:53:59;99604.23;;;24.96;29.75
60646;BME280;46462;32.608;-117.032;2022-11-20T00:56:29;99607.02;;;24.89;29.81
60646;BME280;46462;32.608;-117.032;2022-11-20T00:59:00;99611.86;;;24.93;29.70
60646;BME280;46462;32.608;-117.032;2022-11-20T01:01:29;99614.91;;;24.90;29.77
60646;BME280;46462;32.608;-117.032;2022-11-20T01:04:00;99616.21;;;24.89;29.70
60646;BME280;46462;32.608;-117.032;2022-11-20T01:06:31;99619.91;;;24.91;29.65
60646;BME280;46462;32.608;-117.032;2022-11-20T01:09:02;99622.68;;;24.89;29.75
60646;BME280;46462;32.608;-117.032;2022-11-20T01:11:32;99628.65;;;24.95;29.53
60646;BME280;46462;32.608;-117.032;2022-11-20T01:14:02;99631.53;;;25.04;29.50
60646;BME280;46462;32.608;-117.032;2022-11-20T01:16:32;99633.56;;;24.97;29.63
60646;BME280;46462;32.608;-117.032;2022-11-20T01:19:03;99635.15;;;25.00;29.85
60646;BME280;46462;32.608;-117.032;2022-11-20T01:21:33;99637.68;;;25.08;29.72
60646;BME280;46462;32.608;-117.032;2022-11-20T01:24:02;99638.38;;;25.03;29.57
60646;BME280;46462;32.608;-117.032;2022-11-20T01:26:33;99642.97;;;24.96;29.61
60646;BME280;46462;32.608;-117.032;2022-11-20T01:29:03;99647.81;;;24.96;29.69
60646;BME280;46462;32.608;-117.032;2022-11-20T01:31:33;99650.32;;;25.02;29.66
60646;BME280;46462;32.608;-117.032;2022-11-20T01:34:04;99651.31;;;24.98;29.65
60646;BME280;46462;32.608;-117.032;2022-11-20T01:36:34;99650.53;;;24.97;29.62
60646;BME280;46462;32.608;-117.032;2022-11-20T01:39:05;99653.12;;;24.94;29.72
60646;BME280;46462;32.608;-117.032;2022-11-20T01:41:34;99654.60;;;24.90;29.78
60646;BME280;46462;32.608;-117.032;2022-11-20T01:44:04;99659.34;;;24.88;29.91
60646;BME280;46462;32.608;-117.032;2022-11-20T01:46:35;99666.08;;;24.94;29.56
60646;BME280;46462;32.608;-117.032;2022-11-20T01:49:08;99672.56;;;24.96;29.57
60646;BME280;46462;32.608;-117.032;2022-11-20T01:51:38;99674.97;;;24.98;29.64
60646;BME280;46462;32.608;-117.032;2022-11-20T01:54:06;99676.30;;;24.90;29.60
60646;BME280;46462;32.608;-117.032;2022-11-20T01:56:38;99678.52;;;24.91;29.47
60646;BME280;46462;32.608;-117.032;2022-11-20T01:59:06;99679.75;;;24.90;29.71
60646;BME280;46462;32.608;-117.032;2022-11-20T02:01:35;99682.19;;;24.89;29.70
60646;BME280;46462;32.608;-117.032;2022-11-20T02:04:05;99683.89;;;24.85;29.77
60646;BME280;46462;32.608;-117.032;2022-11-20T02:06:39;99686.90;;;24.84;29.71
60646;BME280;46462;32.608;-117.032;2022-11-20T02:09:05;99690.43;;;24.81;29.81
60646;BME280;46462;32.608;-117.032;2022-11-20T02:11:35;99692.35;;;24.78;29.87
60646;BME280;46462;32.608;-117.032;2022-11-20T02:14:06;99692.60;;;24.79;29.85
60646;BME280;46462;32.608;-117.032;2022-11-20T02:16:39;99698.75;;;24.77;29.77
60646;BME280;46462;32.608;-117.032;2022-11-20T02:19:11;99701.42;;;24.75;29.74
60646;BME280;46462;32.608;-117.032;2022-11-20T02:21:40;99706.07;;;24.74;29.59
60646;BME280;46462;32.608;-117.032;2022-11-20T02:24:10;99705.43;;;24.78;30.02
60646;BME280;46462;32.608;-117.032;2022-11-20T02:26:44;99704.88;;;24.76;30.03
60646;BME280;46462;32.608;-117.032;2022-11-20T02:29:07;99708.96;;;24.74;30.05
60646;BME280;46462;32.608;-117.032;2022-11-20T02:31:40;99712.00;;;24.74;30.08
60646;BME280;46462;32.608;-117.032;2022-11-20T02:34:08;99714.42;;;24.74;30.05
60646;BME280;46462;32.608;-117.032;2022-11-20T02:36:39;99717.16;;;24.74;30.04
60646;BME280;46462;32.608;-117.032;2022-11-20T02:39:09;99721.76;;;24.75;30.00
60646;BME280;46462;32.608;-117.032;2022-11-20T02:41:38;99723.86;;;24.78;29.84
60646;BME280;46462;32.608;-117.032;2022-11-20T02:44:09;99727.78;;;24.74;30.07
60646;BME280;46462;32.608;-117.032;2022-11-20T02:46:39;99729.27;;;24.76;29.92
60646;BME280;46462;32.608;-117.032;2022-11-20T02:49:09;99730.06;;;24.75;30.05
60646;BME280;46462;32.608;-117.032;2022-11-20T02:51:39;99730.02;;;24.71;29.97
60646;BME280;46462;32.608;-117.032;2022-11-20T02:54:09;99732.04;;;24.74;29.86
60646;BME280;46462;32.608;-117.032;2022-11-20T02:56:40;99739.07;;;24.70;29.83
60646;BME280;46462;32.608;-117.032;2022-11-20T02:59:10;99742.71;;;24.70;29.82
60646;BME280;46462;32.608;-117.032;2022-11-20T03:01:40;99746.34;;;24.71;29.81
60646;BME280;46462;32.608;-117.032;2022-11-20T03:04:10;99748.58;;;24.70;29.84
60646;BME280;46462;32.608;-117.032;2022-11-20T03:06:40;99750.56;;;24.70;29.70
60646;BME280;46462;32.608;-117.032;2022-11-20T03:09:11;99751.61;;;24.68;29.80
60646;BME280;46462;32.608;-117.032;2022-11-20T03:11:41;99755.30;;;24.63;29.84
60646;BME280;46462;32.608;-117.032;2022-11-20T03:14:11;99755.48;;;24.62;29.94
60646;BME280;46462;32.608;-117.032;2022-11-20T03:16:41;99756.72;;;24.60;29.97
60646;BME280;46462;32.608;-117.032;2022-11-20T03:19:12;99754.81;;;24.64;29.94
60646;BME280;46462;32.608;-117.032;2022-11-20T03:21:42;99756.12;;;24.68;29.74
60646;BME280;46462;32.608;-117.032;2022-11-20T03:24:13;99759.11;;;24.65;29.85
60646;BME280;46462;32.608;-117.032;2022-11-20T03:26:42;99765.93;;;24.60;29.84
60646;BME280;46462;32.608;-117.032;2022-11-20T03:29:13;99769.15;;;24.60;29.81
60646;BME280;46462;32.608;-117.032;2022-11-20T03:31:43;99773.79;;;24.63;29.76
60646;BME280;46462;32.608;-117.032;2022-11-20T03:34:13;99772.74;;;24.57;29.66
60646;BME280;46462;32.608;-117.032;2022-11-20T03:36:44;99768.70;;;24.53;29.72
60646;BME280;46462;32.608;-117.032;2022-11-20T03:39:14;99767.03;;;24.48;29.93
60646;BME280;46462;32.608;-117.032;2022-11-20T03:41:44;99762.91;;;24.46;29.88
60646;BME280;46462;32.608;-117.032;2022-11-20T03:44:14;99763.19;;;24.46;29.63
60646;BME280;46462;32.608;-117.032;2022-11-20T03:46:44;99765.77;;;24.47;29.57
60646;BME280;46462;32.608;-117.032;2022-11-20T03:49:14;99766.37;;;24.45;29.54
60646;BME280;46462;32.608;-117.032;2022-11-20T03:51:45;99767.02;;;24.43;29.59
60646;BME280;46462;32.608;-117.032;2022-11-20T03:54:15;99770.13;;;24.37;29.79
60646;BME280;46462;32.608;-117.032;2022-11-20T03:56:45;99773.12;;;24.38;29.86
60646;BME280;46462;32.608;-117.032;2022-11-20T03:59:15;99777.17;;;24.43;29.66
60646;BME280;46462;32.608;-117.032;2022-11-20T04:01:46;99779.40;;;24.42;29.58
60646;BME280;46462;32.608;-117.032;2022-11-20T04:04:16;99783.79;;;24.39;29.60
60646;BME280;46462;32.608;-117.032;2022-11-20T04:06:46;99786.70;;;24.38;29.61
60646;BME280;46462;32.608;-117.032;2022-11-20T04:09:16;99792.65;;;24.31;29.75
60646;BME280;46462;32.608;-117.032;2022-11-20T04:11:47;99794.85;;;24.33;29.67
60646;BME280;46462;32.608;-117.032;2022-11-20T04:14:17;99797.70;;;24.32;29.67
60646;BME280;46462;32.608;-117.032;2022-11-20T04:16:47;99798.96;;;24.30;29.87
60646;BME280;46462;32.608;-117.032;2022-11-20T04:19:17;99800.24;;;24.29;29.97
60646;BME280;46462;32.608;-117.032;2022-11-20T04:21:48;99803.13;;;24.27;29.80
60646;BME280;46462;32.608;-117.032;2022-11-20T04:24:18;99804.36;;;24.25;29.75
60646;BME280;46462;32.608;-117.032;2022-11-20T04:26:48;99802.72;;;24.27;29.99
60646;BME280;46462;32.608;-117.032;2022-11-20T04:29:18;99803.21;;;24.24;29.91
60646;BME280;46462;32.608;-117.032;2022-11-20T04:31:48;99807.86;;;24.23;29.93
60646;BME280;46462;32.608;-117.032;2022-11-20T04:34:19;99811.72;;;24.19;30.13
60646;BME280;46462;32.608;-117.032;2022-11-20T04:36:49;99809.49;;;24.16;29.94
60646;BME280;46462;32.608;-117.032;2022-11-20T04:39:19;99813.65;;;24.16;29.78
60646;BME280;46462;32.608;-117.032;2022-11-20T04:41:49;99814.62;;;24.16;29.74
60646;BME280;46462;32.608;-117.032;2022-11-20T04:44:20;99813.10;;;24.17;29.58
60646;BME280;46462;32.608;-117.032;2022-11-20T04:46:50;99814.82;;;24.06;30.15
60646;BME280;46462;32.608;-117.032;2022-11-20T04:49:20;99815.82;;;24.12;29.82
60646;BME280;46462;32.608;-117.032;2022-11-20T04:51:53;99816.23;;;24.16;29.77
60646;BME280;46462;32.608;-117.032;2022-11-20T04:54:21;99815.43;;;24.09;29.71
60646;BME280;46462;32.608;-117.032;2022-11-20T04:56:51;99817.43;;;24.01;29.96
60646;BME280;46462;32.608;-117.032;2022-11-20T04:59:21;99816.71;;;23.90;30.18
60646;BME280;46462;32.608;-117.032;2022-11-20T05:01:52;99815.44;;;23.88;30.23
60646;BME280;46462;32.608;-117.032;2022-11-20T05:04:22;99818.89;;;23.90;30.13
60646;BME280;46462;32.608;-117.032;2022-11-20T05:06:52;99816.98;;;23.94;29.96
60646;BME280;46462;32.608;-117.032;2022-11-20T05:09:22;99818.72;;;23.90;30.14
60646;BME280;46462;32.608;-117.032;2022-11-20T05:11:52;99819.77;;;24.01;29.55
60646;BME280;46462;32.608;-117.032;2022-11-20T05:14:22;99820.90;;;23.92;30.06
60646;BME280;46462;32.608;-117.032;2022-11-20T05:16:53;99820.71;;;23.82;30.32
60646;BME280;46462;32.608;-117.032;2022-11-20T05:19:23;99820.91;;;23.84;30.23
60646;BME280;46462;32.608;-117.032;2022-11-20T05:21:53;99818.61;;;23.79;29.96
60646;BME280;46462;32.608;-117.032;2022-11-20T05:24:23;99818.85;;;23.77;30.15
60646;BME280;46462;32.608;-117.032;2022-11-20T05:26:54;99818.92;;;23.78;30.14
60646;BME280;46462;32.608;-117.032;2022-11-20T05:29:24;99816.72;;;23.79;29.94
60646;BME280;46462;32.608;-117.032;2022-11-20T05:31:54;99814.60;;;23.73;30.23
60646;BME280;46462;32.608;-117.032;2022-11-20T05:34:24;99815.02;;;23.69;30.29
60646;BME280;46462;32.608;-117.032;2022-11-20T05:36:55;99815.24;;;23.73;30.13
60646;BME280;46462;32.608;-117.032;2022-11-20T05:39:25;99813.86;;;23.72;29.89
60646;BME280;46462;32.608;-117.032;2022-11-20T05:41:55;99817.05;;;23.78;29.84
60646;BME280;46462;32.608;-117.032;2022-11-20T05:44:25;99818.55;;;23.75;29.36
60646;BME280;46462;32.608;-117.032;2022-11-20T05:46:56;99820.66;;;23.71;29.66
60646;BME280;46462;32.608;-117.032;2022-11-20T05:49:26;99829.16;;;23.76;29.69
60646;BME280;46462;32.608;-117.032;2022-11-20T05:51:56;99831.98;;;23.70;29.45
60646;BME280;46462;32.608;-117.032;2022-11-20T05:54:26;99838.10;;;23.63;29.83
60646;BME280;46462;32.608;-117.032;2022-11-20T05:56:57;99841.18;;;23.59;30.03
60646;BME280;46462;32.608;-117.032;2022-11-20T05:59:27;99842.06;;;23.62;29.71
60646;BME280;46462;32.608;-117.032;2022-11-20T06:01:57;99842.73;;;23.69;29.78
60646;BME280;46462;32.608;-117.032;2022-11-20T06:04:27;99845.80;;;23.64;29.78
60646;BME280;46462;32.608;-117.032;2022-11-20T06:06:58;99845.15;;;23.64;29.55
60646;BME280;46462;32.608;-117.032;2022-11-20T06:09:28;99847.65;;;23.62;29.43
60646;BME280;46462;32.608;-117.032;2022-11-20T06:11:58;99847.07;;;23.54;29.75
60646;BME280;46462;32.608;-117.032;2022-11-20T06:14:28;99848.61;;;23.64;29.48
60646;BME280;46462;32.608;-117.032;2022-11-20T06:16:58;99850.39;;;23.52;29.68
60646;BME280;46462;32.608;-117.032;2022-11-20T06:19:29;99852.40;;;23.56;29.54
60646;BME280;46462;32.608;-117.032;2022-11-20T06:21:59;99856.85;;;23.52;29.55
60646;BME280;46462;32.608;-117.032;2022-11-20T06:24:29;99854.16;;;23.43;29.75
60646;BME280;46462;32.608;-117.032;2022-11-20T06:26:59;99852.49;;;23.49;29.22
60646;BME280;46462;32.608;-117.032;2022-11-20T06:29:30;99851.57;;;23.46;29.71
60646;BME280;46462;32.608;-117.032;2022-11-20T06:32:00;99858.30;;;23.47;29.68
60646;BME280;46462;32.608;-117.032;2022-11-20T06:34:30;99860.60;;;23.45;29.62
60646;BME280;46462;32.608;-117.032;2022-11-20T06:37:00;99858.14;;;23.42;29.48
60646;BME280;46462;32.608;-117.032;2022-11-20T06:39:31;99856.38;;;23.38;29.43
60646;BME280;46462;32.608;-117.032;2022-11-20T06:42:01;99854.45;;;23.47;29.00
60646;BME280;46462;32.608;-117.032;2022-11-20T06:44:31;99851.73;;;23.43;29.20
60646;BME280;46462;32.608;-117.032;2022-11-20T06:47:01;99851.74;;;23.46;29.10
60646;BME280;46462;32.608;-117.032;2022-11-20T06:49:32;99851.52;;;23.39;29.38
60646;BME280;46462;32.608;-117.032;2022-11-20T06:52:02;99851.47;;;23.28;29.62
60646;BME280;46462;32.608;-117.032;2022-11-20T06:54:32;99853.43;;;23.31;29.38
60646;BME280;46462;32.608;-117.032;2022-11-20T06:57:03;99846.02;;;23.25;29.72
60646;BME280;46462;32.608;-117.032;2022-11-20T06:59:32;99848.30;;;23.33;29.43
60646;BME280;46462;32.608;-117.032;2022-11-20T07:02:03;99854.04;;;23.29;29.05
60646;BME280;46462;32.608;-117.032;2022-11-20T07:04:33;99860.36;;;23.31;29.30
60646;BME280;46462;32.608;-117.032;2022-11-20T07:07:03;99857.36;;;23.21;29.32
60646;BME280;46462;32.608;-117.032;2022-11-20T07:09:33;99861.21;;;23.21;29.33
60646;BME280;46462;32.608;-117.032;2022-11-20T07:12:04;99864.20;;;23.16;29.56
60646;BME280;46462;32.608;-117.032;2022-11-20T07:14:34;99869.26;;;23.14;29.18
60646;BME280;46462;32.608;-117.032;2022-11-20T07:17:04;99872.38;;;23.13;29.43
60646;BME280;46462;32.608;-117.032;2022-11-20T07:19:34;99869.76;;;23.13;29.33
60646;BME280;46462;32.608;-117.032;2022-11-20T07:22:05;99864.18;;;23.07;29.43
60646;BME280;46462;32.608;-117.032;2022-11-20T07:24:35;99864.90;;;23.00;29.39
60646;BME280;46462;32.608;-117.032;2022-11-20T07:27:05;99863.36;;;23.01;29.49
60646;BME280;46462;32.608;-117.032;2022-11-20T07:29:35;99863.49;;;22.99;29.31
60646;BME280;46462;32.608;-117.032;2022-11-20T07:32:06;99864.68;;;23.07;29.10
60646;BME280;46462;32.608;-117.032;2022-11-20T07:34:36;99867.08;;;23.00;29.10
60646;BME280;46462;32.608;-117.032;2022-11-20T07:37:06;99864.97;;;23.06;29.28
60646;BME280;46462;32.608;-117.032;2022-11-20T07:39:36;99860.93;;;22.91;29.41
60646;BME280;46462;32.608;-117.032;2022-11-20T07:42:07;99861.07;;;22.98;29.14
60646;BME280;46462;32.608;-117.032;2022-11-20T07:44:37;99858.12;;;23.00;29.12
60646;BME280;46462;32.608;-117.032;2022-11-20T07:47:07;99857.72;;;22.82;29.47
60646;BME280;46462;32.608;-117.032;2022-11-20T07:49:37;99856.44;;;22.84;29.20
60646;BME280;46462;32.608;-117.032;2022-11-20T07:52:08;99855.95;;;22.89;29.27
60646;BME280;46462;32.608;-117.032;2022-11-20T07:54:38;99852.50;;;22.90;29.33
60646;BME280;46462;32.608;-117.032;2022-11-20T07:57:08;99852.67;;;22.86;29.08
60646;BME280;46462;32.608;-117.032;2022-11-20T07:59:38;99853.40;;;22.62;29.76
60646;BME280;46462;32.608;-117.032;2022-11-20T08:02:11;99852.69;;;22.71;29.31
60646;BME280;46462;32.608;-117.032;2022-11-20T08:04:39;99850.39;;;22.74;29.23
60646;BME280;46462;32.608;-117.032;2022-11-20T08:07:09;99849.60;;;22.73;29.19
60646;BME280;46462;32.608;-117.032;2022-11-20T08:09:39;99847.85;;;22.77;29.23
60646;BME280;46462;32.608;-117.032;2022-11-20T08:12:16;99843.51;;;22.88;28.98
60646;BME280;46462;32.608;-117.032;2022-11-20T08:14:40;99844.04;;;22.70;29.39
60646;BME280;46462;32.608;-117.032;2022-11-20T08:17:10;99841.87;;;22.63;29.35
60646;BME280;46462;32.608;-117.032;2022-11-20T08:19:40;99844.47;;;22.60;29.28
60646;BME280;46462;32.608;-117.032;2022-11-20T08:22:11;99845.88;;;22.62;29.19
60646;BME280;46462;32.608;-117.032;2022-11-20T08:24:41;99849.18;;;22.58;29.17
60646;BME280;46462;32.608;-117.032;2022-11-20T08:27:11;99848.42;;;22.54;29.16
60646;BME280;46462;32.608;-117.032;2022-11-20T08:29:41;99849.10;;;22.46;29.41
60646;BME280;46462;32.608;-117.032;2022-11-20T08:32:12;99848.37;;;22.49;29.15
60646;BME280;46462;32.608;-117.032;2022-11-20T08:34:42;99844.15;;;22.50;29.13
60646;BME280;46462;32.608;-117.032;2022-11-20T08:37:12;99843.61;;;22.46;29.12
60646;BME280;46462;32.608;-117.032;2022-11-20T08:39:42;99846.46;;;22.51;28.84
60646;BME280;46462;32.608;-117.032;2022-11-20T08:42:13;99850.42;;;22.46;29.03
60646;BME280;46462;32.608;-117.032;2022-11-20T08:44:43;99849.58;;;22.49;28.85
60646;BME280;46462;32.608;-117.032;2022-11-20T08:47:13;99856.30;;;22.48;29.03
60646;BME280;46462;32.608;-117.032;2022-11-20T08:49:43;99858.16;;;22.46;28.82
60646;BME280;46462;32.608;-117.032;2022-11-20T08:52:14;99861.19;;;22.43;29.04
60646;BME280;46462;32.608;-117.032;2022-11-20T08:54:44;99856.89;;;22.40;28.93
60646;BME280;46462;32.608;-117.032;2022-11-20T08:57:14;99859.68;;;22.45;28.94
60646;BME280;46462;32.608;-117.032;2022-11-20T08:59:44;99861.78;;;22.43;28.96
60646;BME280;46462;32.608;-117.032;2022-11-20T09:02:15;99864.35;;;22.44;28.93
60646;BME280;46462;32.608;-117.032;2022-11-20T09:04:45;99863.72;;;22.41;29.00
60646;BME280;46462;32.608;-117.032;2022-11-20T09:07:15;99865.00;;;22.36;29.08
60646;BME280;46462;32.608;-117.032;2022-11-20T09:09:46;99865.42;;;22.32;29.03
60646;BME280;46462;32.608;-117.032;2022-11-20T09:12:16;99868.99;;;22.29;28.87
60646;BME280;46462;32.608;-117.032;2022-11-20T09:14:46;99868.43;;;22.39;28.83
60646;BME280;46462;32.608;-117.032;2022-11-20T09:17:16;99865.03;;;22.43;28.71
60646;BME280;46462;32.608;-117.032;2022-11-20T09:19:47;99863.34;;;22.35;28.61
60646;BME280;46462;32.608;-117.032;2022-11-20T09:22:17;99864.32;;;22.32;28.81
60646;BME280;46462;32.608;-117.032;2022-11-20T09:24:47;99861.09;;;22.20;28.88
60646;BME280;46462;32.608;-117.032;2022-11-20T09:27:17;99857.93;;;22.14;28.98
60646;BME280;46462;32.608;-117.032;2022-11-20T09:29:47;99854.02;;;22.17;28.76
60646;BME280;46462;32.608;-117.032;2022-11-20T09:32:18;99853.07;;;22.18;28.81
60646;BME280;46462;32.608;-117.032;2022-11-20T09:34:48;99853.35;;;22.10;28.96
60646;BME280;46462;32.608;-117.032;2022-11-20T09:37:18;99851.33;;;22.19;28.78
60646;BME280;46462;32.608;-117.032;2022-11-20T09:39:49;99850.90;;;22.23;28.74
60646;BME280;46462;32.608;-117.032;2022-11-20T09:42:29;99849.50;;;22.30;28.47
60646;BME280;46462;32.608;-117.032;2022-11-20T09:44:58;99852.04;;;22.20;28.87
60646;BME280;46462;32.608;-117.032;2022-11-20T09:47:27;99847.10;;;22.38;28.40
60646;BME280;46462;32.608;-117.032;2022-11-20T09:50:01;99840.04;;;22.43;28.25
60646;BME280;46462;32.608;-117.032;2022-11-20T09:52:26;99838.48;;;22.29;28.34
60646;BME280;46462;32.608;-117.032;2022-11-20T09:54:51;99839.10;;;22.21;28.58
60646;BME280;46462;32.608;-117.032;2022-11-20T09:57:23;99841.98;;;22.16;28.42
60646;BME280;46462;32.608;-117.032;2022-11-20T09:59:52;99840.47;;;22.13;28.52
60646;BME280;46462;32.608;-117.032;2022-11-20T10:02:28;99833.33;;;22.10;28.39
60646;BME280;46462;32.608;-117.032;2022-11-20T10:04:55;99829.92;;;22.17;28.21
60646;BME280;46462;32.608;-117.032;2022-11-20T10:07:25;99821.57;;;22.22;28.49
60646;BME280;46462;32.608;-117.032;2022-11-20T10:09:54;99822.23;;;22.13;28.48
60646;BME280;46462;32.608;-117.032;2022-11-20T10:12:27;99818.19;;;22.03;28.63
60646;BME280;46462;32.608;-117.032;2022-11-20T10:15:03;99818.53;;;22.11;28.49
60646;BME280;46462;32.608;-117.032;2022-11-20T10:17:30;99821.41;;;22.11;28.27
60646;BME280;46462;32.608;-117.032;2022-11-20T10:20:05;99822.63;;;21.88;28.70
60646;BME280;46462;32.608;-117.032;2022-11-20T10:22:35;99823.42;;;22.14;28.52
60646;BME280;46462;32.608;-117.032;2022-11-20T10:24:57;99821.34;;;22.09;28.28
60646;BME280;46462;32.608;-117.032;2022-11-20T10:27:39;99819.53;;;22.00;28.49
60646;BME280;46462;32.608;-117.032;2022-11-20T10:30:00;99823.48;;;21.93;28.34
60646;BME280;46462;32.608;-117.032;2022-11-20T10:32:30;99823.44;;;22.10;28.06
60646;BME280;46462;32.608;-117.032;2022-11-20T10:34:59;99825.18;;;22.04;28.20
60646;BME280;46462;32.608;-117.032;2022-11-20T10:37:26;99828.45;;;21.89;28.29
60646;BME280;46462;32.608;-117.032;2022-11-20T10:39:59;99830.72;;;21.91;28.18
60646;BME280;46462;32.608;-117.032;2022-11-20T10:42:30;99841.23;;;21.98;28.11
60646;BME280;46462;32.608;-117.032;2022-11-20T10:45:02;99843.27;;;21.95;28.31
60646;BME280;46462;32.608;-117.032;2022-11-20T10:47:26;99842.90;;;21.87;28.34
60646;BME280;46462;32.608;-117.032;2022-11-20T10:49:58;99836.27;;;21.78;28.47
60646;BME280;46462;32.608;-117.032;2022-11-20T10:52:32;99835.89;;;21.69;28.75
60646;BME280;46462;32.608;-117.032;2022-11-20T10:55:02;99837.14;;;21.84;28.58
60646;BME280;46462;32.608;-117.032;2022-11-20T10:57:35;99837.73;;;21.82;28.18
60646;BME280;46462;32.608;-117.032;2022-11-20T11:00:04;99840.34;;;21.85;28.30
60646;BME280;46462;32.608;-117.032;2022-11-20T11:02:35;99838.07;;;21.69;28.42
60646;BME280;46462;32.608;-117.032;2022-11-20T11:04:58;99841.68;;;21.69;28.33
60646;BME280;46462;32.608;-117.032;2022-11-20T11:07:33;99841.11;;;21.68;28.34
60646;BME280;46462;32.608;-117.032;2022-11-20T11:09:58;99846.93;;;21.69;28.36
60646;BME280;46462;32.608;-117.032;2022-11-20T11:12:29;99847.71;;;21.57;28.68
60646;BME280;46462;32.608;-117.032;2022-11-20T11:14:59;99846.86;;;21.55;28.50
60646;BME280;46462;32.608;-117.032;2022-11-20T11:17:30;99852.70;;;21.55;28.51
60646;BME280;46462;32.608;-117.032;2022-11-20T11:20:02;99850.76;;;21.57;28.47
60646;BME280;46462;32.608;-117.032;2022-11-20T11:22:31;99853.05;;;21.58;28.43
60646;BME280;46462;32.608;-117.032;2022-11-20T11:25:00;99854.96;;;21.64;28.19
60646;BME280;46462;32.608;-117.032;2022-11-20T11:27:30;99855.28;;;21.74;28.16
60646;BME280;46462;32.608;-117.032;2022-11-20T11:32:30;99859.00;;;21.53;28.25
60646;BME280;46462;32.608;-117.032;2022-11-20T11:35:02;99862.58;;;21.49;28.52
60646;BME280;46462;32.608;-117.032;2022-11-20T11:37:34;99862.88;;;21.46;28.44
60646;BME280;46462;32.608;-117.032;2022-11-20T11:40:02;99864.56;;;21.54;28.29
60646;BME280;46462;32.608;-117.032;2022-11-20T11:42:32;99865.76;;;21.49;28.18
60646;BME280;46462;32.608;-117.032;2022-11-20T11:45:02;99860.81;;;21.44;28.33
60646;BME280;46462;32.608;-117.032;2022-11-20T11:47:33;99857.18;;;21.52;28.24
60646;BME280;46462;32.608;-117.032;2022-11-20T11:52:37;99857.89;;;21.41;28.55
60646;BME280;46462;32.608;-117.032;2022-11-20T11:55:11;99855.47;;;21.47;28.22
60646;BME280;46462;32.608;-117.032;2022-11-20T11:57:42;99853.57;;;21.51;28.18
60646;BME280;46462;32.608;-117.032;2022-11-20T12:00:11;99853.41;;;21.41;28.13
60646;BME280;46462;32.608;-117.032;2022-11-20T12:02:44;99854.66;;;21.46;28.22
60646;BME280;46462;32.608;-117.032;2022-11-20T12:05:18;99854.77;;;21.45;28.20
60646;BME280;46462;32.608;-117.032;2022-11-20T12:07:42;99854.01;;;21.38;28.11
60646;BME280;46462;32.608;-117.032;2022-11-20T12:10:17;99854.89;;;21.40;28.06
60646;BME280;46462;32.608;-117.032;2022-11-20T12:12:42;99855.41;;;21.43;27.98
60646;BME280;46462;32.608;-117.032;2022-11-20T12:15:11;99850.94;;;21.45;28.10
60646;BME280;46462;32.608;-117.032;2022-11-20T12:17:39;99849.39;;;21.25;28.26
60646;BME280;46462;32.608;-117.032;2022-11-20T12:20:14;99854.86;;;21.40;28.25
60646;BME280;46462;32.608;-117.032;2022-11-20T12:22:46;99856.49;;;21.31;28.28
60646;BME280;46462;32.608;-117.032;2022-11-20T12:25:15;99859.59;;;21.31;28.27
60646;BME280;46462;32.608;-117.032;2022-11-20T12:27:51;99867.01;;;21.34;28.17
60646;BME280;46462;32.608;-117.032;2022-11-20T12:30:13;99871.72;;;21.33;28.07
60646;BME280;46462;32.608;-117.032;2022-11-20T12:35:24;99874.79;;;21.27;28.10
60646;BME280;46462;32.608;-117.032;2022-11-20T12:37:47;99877.09;;;21.29;28.30
60646;BME280;46462;32.608;-117.032;2022-11-20T12:40:22;99877.69;;;21.15;28.33
60646;BME280;46462;32.608;-117.032;2022-11-20T12:42:49;99876.31;;;21.25;28.40
60646;BME280;46462;32.608;-117.032;2022-11-20T12:47:54;99875.07;;;21.48;27.65
60646;BME280;46462;32.608;-117.032;2022-11-20T12:50:19;99871.37;;;21.28;28.19
60646;BME280;46462;32.608;-117.032;2022-11-20T12:52:47;99869.80;;;21.25;28.21
60646;BME280;46462;32.608;-117.032;2022-11-20T12:55:22;99871.85;;;21.36;27.91